sensor_id;sensor_type;location;lat;lon;timestamp;P1;durP1;ratioP1;P2;durP2;ratioP2
57443;SDS011;43289;52.962;6.196;2022-10-26T00:01:47;13.70;;;8.10;;
57443;SDS011;43289;52.962;6.196;2022-10-26T00:04:13;11.35;;;7.45;;
57443;SDS011;43289;52.962;6.196;2022-10-26T00:06:39;13.65;;;7.53;;
57443;SDS011;43289;52.962;6.196;2022-10-26T00:09:05;14.32;;;6.85;;
57443;SDS011;43289;52.962;6.196;2022-10-26T00:11:31;10.75;;;7.38;;
57443;SDS011;43289;52.962;6.196;2022-10-26T00:13:57;12.07;;;7.47;;
57443;SDS011;43289;52.962;6.196;2022-10-26T00:16:24;14.65;;;7.75;;
57443;SDS011;43289;52.962;6.196;2022-10-26T00:18:51;11.27;;;6.57;;
57443;SDS011;43289;52.962;6.196;2022-10-26T00:21:17;13.23;;;7.50;;
57443;SDS011;43289;52.962;6.196;2022-10-26T00:23:43;10.63;;;6.45;;
57443;SDS011;43289;52.962;6.196;2022-10-26T00:26:10;15.60;;;7.30;;
57443;SDS011;43289;52.962;6.196;2022-10-26T00:28:36;10.82;;;6.57;;
57443;SDS011;43289;52.962;6.196;2022-10-26T00:31:06;11.02;;;6.25;;
57443;SDS011;43289;52.962;6.196;2022-10-26T00:33:32;10.70;;;6.00;;
57443;SDS011;43289;52.962;6.196;2022-10-26T00:35:59;10.30;;;6.57;;
57443;SDS011;43289;52.962;6.196;2022-10-26T00:38:25;11.48;;;7.78;;
57443;SDS011;43289;52.962;6.196;2022-10-26T00:40:51;12.57;;;7.78;;
57443;SDS011;43289;52.962;6.196;2022-10-26T00:45:46;10.27;;;6.70;;
57443;SDS011;43289;52.962;6.196;2022-10-26T00:48:57;12.68;;;6.38;;
57443;SDS011;43289;52.962;6.196;2022-10-26T00:51:08;12.02;;;6.45;;
57443;SDS011;43289;52.962;6.196;2022-10-26T00:53:35;11.60;;;6.97;;
57443;SDS011;43289;52.962;6.196;2022-10-26T00:56:01;9.30;;;6.22;;
57443;SDS011;43289;52.962;6.196;2022-10-26T00:58:27;11.57;;;7.10;;
57443;SDS011;43289;52.962;6.196;2022-10-26T01:00:54;9.40;;;5.78;;
57443;SDS011;43289;52.962;6.196;2022-10-26T01:03:20;11.25;;;6.18;;
57443;SDS011;43289;52.962;6.196;2022-10-26T01:05:49;15.18;;;6.75;;
57443;SDS011;43289;52.962;6.196;2022-10-26T01:08:15;9.60;;;6.03;;
57443;SDS011;43289;52.962;6.196;2022-10-26T01:10:42;8.73;;;5.50;;
57443;SDS011;43289;52.962;6.196;2022-10-26T01:13:08;9.30;;;5.65;;
57443;SDS011;43289;52.962;6.196;2022-10-26T01:18:12;9.10;;;6.18;;
57443;SDS011;43289;52.962;6.196;2022-10-26T01:20:50;12.05;;;6.40;;
57443;SDS011;43289;52.962;6.196;2022-10-26T01:31:21;10.32;;;6.57;;
57443;SDS011;43289;52.962;6.196;2022-10-26T01:33:49;12.77;;;7.00;;
57443;SDS011;43289;52.962;6.196;2022-10-26T01:39:20;12.40;;;8.10;;
57443;SDS011;43289;52.962;6.196;2022-10-26T01:46:41;15.10;;;7.47;;
57443;SDS011;43289;52.962;6.196;2022-10-26T01:49:09;11.73;;;7.40;;
57443;SDS011;43289;52.962;6.196;2022-10-26T01:51:36;14.02;;;8.30;;
57443;SDS011;43289;52.962;6.196;2022-10-26T01:54:03;13.48;;;7.65;;
57443;SDS011;43289;52.962;6.196;2022-10-26T01:56:30;13.52;;;9.45;;
57443;SDS011;43289;52.962;6.196;2022-10-26T02:04:10;19.88;;;10.32;;
57443;SDS011;43289;52.962;6.196;2022-10-26T02:07:02;13.30;;;9.10;;
57443;SDS011;43289;52.962;6.196;2022-10-26T02:09:33;16.63;;;10.07;;
57443;SDS011;43289;52.962;6.196;2022-10-26T02:12:05;16.67;;;10.88;;
57443;SDS011;43289;52.962;6.196;2022-10-26T02:14:55;18.67;;;11.45;;
57443;SDS011;43289;52.962;6.196;2022-10-26T02:17:25;19.60;;;13.15;;
57443;SDS011;43289;52.962;6.196;2022-10-26T02:22:20;20.63;;;13.82;;
57443;SDS011;43289;52.962;6.196;2022-10-26T02:24:47;20.67;;;14.27;;
57443;SDS011;43289;52.962;6.196;2022-10-26T02:27:16;20.48;;;14.32;;
57443;SDS011;43289;52.962;6.196;2022-10-26T02:29:44;25.35;;;15.73;;
57443;SDS011;43289;52.962;6.196;2022-10-26T02:32:12;22.05;;;15.15;;
57443;SDS011;43289;52.962;6.196;2022-10-26T02:34:38;23.30;;;16.10;;
57443;SDS011;43289;52.962;6.196;2022-10-26T02:37:08;22.58;;;14.23;;
57443;SDS011;43289;52.962;6.196;2022-10-26T02:39:35;20.42;;;13.70;;
57443;SDS011;43289;52.962;6.196;2022-10-26T02:42:04;23.00;;;14.15;;
57443;SDS011;43289;52.962;6.196;2022-10-26T02:44:33;18.50;;;13.23;;
57443;SDS011;43289;52.962;6.196;2022-10-26T02:47:00;20.83;;;15.38;;
57443;SDS011;43289;52.962;6.196;2022-10-26T02:49:27;22.45;;;15.18;;
57443;SDS011;43289;52.962;6.196;2022-10-26T02:57:04;21.00;;;14.35;;
57443;SDS011;43289;52.962;6.196;2022-10-26T02:59:34;19.25;;;13.27;;
57443;SDS011;43289;52.962;6.196;2022-10-26T03:02:01;19.88;;;12.75;;
57443;SDS011;43289;52.962;6.196;2022-10-26T03:04:28;20.65;;;13.40;;
57443;SDS011;43289;52.962;6.196;2022-10-26T03:06:55;21.00;;;12.55;;
57443;SDS011;43289;52.962;6.196;2022-10-26T03:09:21;17.60;;;12.10;;
57443;SDS011;43289;52.962;6.196;2022-10-26T03:11:47;19.13;;;11.95;;
57443;SDS011;43289;52.962;6.196;2022-10-26T03:14:13;19.42;;;13.38;;
57443;SDS011;43289;52.962;6.196;2022-10-26T03:16:39;18.17;;;12.48;;
57443;SDS011;43289;52.962;6.196;2022-10-26T03:19:05;19.55;;;13.25;;
57443;SDS011;43289;52.962;6.196;2022-10-26T03:21:31;19.83;;;13.05;;
57443;SDS011;43289;52.962;6.196;2022-10-26T03:23:57;19.60;;;12.20;;
57443;SDS011;43289;52.962;6.196;2022-10-26T03:26:23;14.93;;;10.85;;
57443;SDS011;43289;52.962;6.196;2022-10-26T03:28:49;15.88;;;11.63;;
57443;SDS011;43289;52.962;6.196;2022-10-26T03:31:15;14.95;;;10.63;;
57443;SDS011;43289;52.962;6.196;2022-10-26T03:33:41;15.27;;;10.45;;
57443;SDS011;43289;52.962;6.196;2022-10-26T03:36:07;14.55;;;11.23;;
57443;SDS011;43289;52.962;6.196;2022-10-26T03:38:34;17.13;;;11.00;;
57443;SDS011;43289;52.962;6.196;2022-10-26T03:44:29;15.18;;;10.57;;
57443;SDS011;43289;52.962;6.196;2022-10-26T03:46:55;18.02;;;11.77;;
57443;SDS011;43289;52.962;6.196;2022-10-26T03:49:21;17.13;;;11.15;;
57443;SDS011;43289;52.962;6.196;2022-10-26T03:51:47;24.48;;;12.38;;
57443;SDS011;43289;52.962;6.196;2022-10-26T03:54:13;23.67;;;12.18;;
57443;SDS011;43289;52.962;6.196;2022-10-26T03:56:39;22.00;;;13.50;;
57443;SDS011;43289;52.962;6.196;2022-10-26T03:59:05;20.65;;;12.88;;
57443;SDS011;43289;52.962;6.196;2022-10-26T04:01:31;18.20;;;12.35;;
57443;SDS011;43289;52.962;6.196;2022-10-26T04:03:57;16.85;;;11.40;;
57443;SDS011;43289;52.962;6.196;2022-10-26T04:06:23;21.20;;;13.20;;
57443;SDS011;43289;52.962;6.196;2022-10-26T04:08:49;17.40;;;11.75;;
57443;SDS011;43289;52.962;6.196;2022-10-26T04:11:15;19.38;;;10.35;;
57443;SDS011;43289;52.962;6.196;2022-10-26T04:13:41;15.50;;;10.88;;
57443;SDS011;43289;52.962;6.196;2022-10-26T04:16:07;17.17;;;9.82;;
57443;SDS011;43289;52.962;6.196;2022-10-26T04:18:33;15.98;;;10.40;;
57443;SDS011;43289;52.962;6.196;2022-10-26T04:21:00;19.95;;;10.05;;
57443;SDS011;43289;52.962;6.196;2022-10-26T04:23:26;17.85;;;12.30;;
57443;SDS011;43289;52.962;6.196;2022-10-26T04:25:52;17.52;;;12.20;;
57443;SDS011;43289;52.962;6.196;2022-10-26T04:28:18;15.40;;;10.50;;
57443;SDS011;43289;52.962;6.196;2022-10-26T04:30:46;20.20;;;11.80;;
57443;SDS011;43289;52.962;6.196;2022-10-26T04:33:12;20.95;;;12.73;;
57443;SDS011;43289;52.962;6.196;2022-10-26T04:35:38;17.88;;;12.02;;
57443;SDS011;43289;52.962;6.196;2022-10-26T04:38:04;17.35;;;12.10;;
57443;SDS011;43289;52.962;6.196;2022-10-26T04:40:31;21.33;;;13.95;;
57443;SDS011;43289;52.962;6.196;2022-10-26T04:42:58;18.55;;;12.63;;
57443;SDS011;43289;52.962;6.196;2022-10-26T04:45:24;17.15;;;12.95;;
57443;SDS011;43289;52.962;6.196;2022-10-26T04:50:24;19.48;;;12.85;;
57443;SDS011;43289;52.962;6.196;2022-10-26T04:52:51;19.75;;;13.32;;
57443;SDS011;43289;52.962;6.196;2022-10-26T04:55:17;16.77;;;12.00;;
57443;SDS011;43289;52.962;6.196;2022-10-26T04:57:44;19.33;;;13.05;;
57443;SDS011;43289;52.962;6.196;2022-10-26T05:00:10;20.50;;;13.23;;
57443;SDS011;43289;52.962;6.196;2022-10-26T05:02:36;17.95;;;12.60;;
57443;SDS011;43289;52.962;6.196;2022-10-26T05:05:02;18.00;;;13.25;;
57443;SDS011;43289;52.962;6.196;2022-10-26T05:07:28;16.10;;;11.70;;
57443;SDS011;43289;52.962;6.196;2022-10-26T05:09:54;17.30;;;12.52;;
57443;SDS011;43289;52.962;6.196;2022-10-26T05:12:20;19.27;;;13.52;;
57443;SDS011;43289;52.962;6.196;2022-10-26T05:14:47;18.75;;;11.40;;
57443;SDS011;43289;52.962;6.196;2022-10-26T05:17:13;18.83;;;13.25;;
57443;SDS011;43289;52.962;6.196;2022-10-26T05:19:39;21.73;;;12.05;;
57443;SDS011;43289;52.962;6.196;2022-10-26T05:22:05;21.52;;;13.13;;
57443;SDS011;43289;52.962;6.196;2022-10-26T05:24:31;18.48;;;12.32;;
57443;SDS011;43289;52.962;6.196;2022-10-26T05:26:57;17.13;;;11.75;;
57443;SDS011;43289;52.962;6.196;2022-10-26T05:29:23;23.30;;;11.65;;
57443;SDS011;43289;52.962;6.196;2022-10-26T05:31:50;18.55;;;11.27;;
57443;SDS011;43289;52.962;6.196;2022-10-26T05:34:16;21.70;;;13.13;;
57443;SDS011;43289;52.962;6.196;2022-10-26T05:36:42;19.70;;;12.05;;
57443;SDS011;43289;52.962;6.196;2022-10-26T05:39:08;18.52;;;13.05;;
57443;SDS011;43289;52.962;6.196;2022-10-26T05:41:44;20.80;;;12.65;;
57443;SDS011;43289;52.962;6.196;2022-10-26T05:44:10;15.05;;;10.90;;
57443;SDS011;43289;52.962;6.196;2022-10-26T05:46:36;16.35;;;10.55;;
57443;SDS011;43289;52.962;6.196;2022-10-26T05:49:02;14.63;;;10.63;;
57443;SDS011;43289;52.962;6.196;2022-10-26T05:51:28;16.80;;;11.10;;
57443;SDS011;43289;52.962;6.196;2022-10-26T05:53:54;20.50;;;12.20;;
57443;SDS011;43289;52.962;6.196;2022-10-26T05:56:33;18.10;;;12.18;;
57443;SDS011;43289;52.962;6.196;2022-10-26T05:58:59;21.35;;;12.25;;
57443;SDS011;43289;52.962;6.196;2022-10-26T06:18:38;15.05;;;10.93;;
57443;SDS011;43289;52.962;6.196;2022-10-26T06:21:18;16.37;;;10.47;;
57443;SDS011;43289;52.962;6.196;2022-10-26T06:31:26;15.45;;;9.68;;
57443;SDS011;43289;52.962;6.196;2022-10-26T06:33:58;18.33;;;10.77;;
57443;SDS011;43289;52.962;6.196;2022-10-26T06:36:25;17.15;;;10.38;;
57443;SDS011;43289;52.962;6.196;2022-10-26T06:38:57;17.15;;;10.75;;
57443;SDS011;43289;52.962;6.196;2022-10-26T06:41:24;14.70;;;9.85;;
57443;SDS011;43289;52.962;6.196;2022-10-26T06:43:51;12.23;;;9.07;;
57443;SDS011;43289;52.962;6.196;2022-10-26T06:49:53;14.25;;;8.73;;
57443;SDS011;43289;52.962;6.196;2022-10-26T06:52:34;13.60;;;9.30;;
57443;SDS011;43289;52.962;6.196;2022-10-26T06:55:02;17.13;;;9.50;;
57443;SDS011;43289;52.962;6.196;2022-10-26T07:00:53;16.17;;;10.25;;
57443;SDS011;43289;52.962;6.196;2022-10-26T07:03:20;18.20;;;9.65;;
57443;SDS011;43289;52.962;6.196;2022-10-26T07:05:46;11.52;;;8.70;;
57443;SDS011;43289;52.962;6.196;2022-10-26T07:11:34;12.88;;;7.95;;
57443;SDS011;43289;52.962;6.196;2022-10-26T07:14:00;14.73;;;9.13;;
57443;SDS011;43289;52.962;6.196;2022-10-26T07:16:26;14.23;;;8.18;;
57443;SDS011;43289;52.962;6.196;2022-10-26T07:18:53;13.43;;;8.27;;
57443;SDS011;43289;52.962;6.196;2022-10-26T07:21:19;10.55;;;7.75;;
57443;SDS011;43289;52.962;6.196;2022-10-26T07:23:45;17.10;;;9.02;;
57443;SDS011;43289;52.962;6.196;2022-10-26T07:26:11;14.60;;;8.68;;
57443;SDS011;43289;52.962;6.196;2022-10-26T07:28:37;12.70;;;8.68;;
57443;SDS011;43289;52.962;6.196;2022-10-26T07:31:03;12.65;;;7.85;;
57443;SDS011;43289;52.962;6.196;2022-10-26T07:33:29;12.88;;;8.23;;
57443;SDS011;43289;52.962;6.196;2022-10-26T07:35:57;12.55;;;8.25;;
57443;SDS011;43289;52.962;6.196;2022-10-26T07:38:23;14.05;;;7.80;;
57443;SDS011;43289;52.962;6.196;2022-10-26T07:40:49;11.80;;;7.88;;
57443;SDS011;43289;52.962;6.196;2022-10-26T07:43:18;11.43;;;7.90;;
57443;SDS011;43289;52.962;6.196;2022-10-26T07:45:47;12.80;;;7.30;;
57443;SDS011;43289;52.962;6.196;2022-10-26T07:48:14;14.20;;;7.05;;
57443;SDS011;43289;52.962;6.196;2022-10-26T07:50:40;13.13;;;7.50;;
57443;SDS011;43289;52.962;6.196;2022-10-26T07:53:06;11.82;;;7.30;;
57443;SDS011;43289;52.962;6.196;2022-10-26T07:55:32;13.15;;;8.00;;
57443;SDS011;43289;52.962;6.196;2022-10-26T07:57:58;13.73;;;7.75;;
57443;SDS011;43289;52.962;6.196;2022-10-26T08:00:24;12.70;;;6.22;;
57443;SDS011;43289;52.962;6.196;2022-10-26T08:02:50;11.20;;;7.07;;
57443;SDS011;43289;52.962;6.196;2022-10-26T08:05:16;14.30;;;7.03;;
57443;SDS011;43289;52.962;6.196;2022-10-26T08:07:42;12.50;;;7.05;;
57443;SDS011;43289;52.962;6.196;2022-10-26T08:10:09;14.45;;;7.45;;
57443;SDS011;43289;52.962;6.196;2022-10-26T08:12:35;14.52;;;7.60;;
57443;SDS011;43289;52.962;6.196;2022-10-26T08:15:01;12.73;;;6.72;;
57443;SDS011;43289;52.962;6.196;2022-10-26T08:17:28;10.38;;;6.47;;
57443;SDS011;43289;52.962;6.196;2022-10-26T08:19:54;11.52;;;6.70;;
57443;SDS011;43289;52.962;6.196;2022-10-26T08:22:20;14.50;;;7.50;;
57443;SDS011;43289;52.962;6.196;2022-10-26T08:24:46;11.05;;;6.63;;
57443;SDS011;43289;52.962;6.196;2022-10-26T08:27:12;12.85;;;6.85;;
57443;SDS011;43289;52.962;6.196;2022-10-26T08:29:39;9.35;;;5.70;;
57443;SDS011;43289;52.962;6.196;2022-10-26T08:32:05;12.07;;;6.80;;
57443;SDS011;43289;52.962;6.196;2022-10-26T08:34:31;10.65;;;7.15;;
57443;SDS011;43289;52.962;6.196;2022-10-26T08:36:57;9.70;;;6.68;;
57443;SDS011;43289;52.962;6.196;2022-10-26T08:39:23;10.45;;;6.80;;
57443;SDS011;43289;52.962;6.196;2022-10-26T08:41:54;11.63;;;6.75;;
57443;SDS011;43289;52.962;6.196;2022-10-26T08:45:07;12.55;;;7.07;;
57443;SDS011;43289;52.962;6.196;2022-10-26T08:47:13;13.30;;;6.75;;
57443;SDS011;43289;52.962;6.196;2022-10-26T08:49:43;11.25;;;7.05;;
57443;SDS011;43289;52.962;6.196;2022-10-26T08:52:12;9.05;;;5.45;;
57443;SDS011;43289;52.962;6.196;2022-10-26T08:54:40;11.00;;;6.68;;
57443;SDS011;43289;52.962;6.196;2022-10-26T08:57:18;12.45;;;6.05;;
57443;SDS011;43289;52.962;6.196;2022-10-26T08:59:55;10.40;;;6.80;;
57443;SDS011;43289;52.962;6.196;2022-10-26T09:02:22;9.25;;;6.63;;
57443;SDS011;43289;52.962;6.196;2022-10-26T09:04:48;10.93;;;5.45;;
57443;SDS011;43289;52.962;6.196;2022-10-26T09:10:13;9.60;;;5.53;;
57443;SDS011;43289;52.962;6.196;2022-10-26T09:12:47;8.02;;;5.45;;
57443;SDS011;43289;52.962;6.196;2022-10-26T09:20:32;7.28;;;4.88;;
57443;SDS011;43289;52.962;6.196;2022-10-26T09:25:46;8.70;;;4.30;;
57443;SDS011;43289;52.962;6.196;2022-10-26T09:28:16;6.45;;;3.80;;
57443;SDS011;43289;52.962;6.196;2022-10-26T09:30:43;9.95;;;4.97;;
57443;SDS011;43289;52.962;6.196;2022-10-26T09:33:16;8.15;;;4.00;;
57443;SDS011;43289;52.962;6.196;2022-10-26T09:41:43;8.32;;;3.97;;
57443;SDS011;43289;52.962;6.196;2022-10-26T09:44:12;10.95;;;4.43;;
57443;SDS011;43289;52.962;6.196;2022-10-26T09:46:45;9.07;;;4.82;;
57443;SDS011;43289;52.962;6.196;2022-10-26T09:49:12;7.72;;;4.18;;
57443;SDS011;43289;52.962;6.196;2022-10-26T09:51:40;8.27;;;4.18;;
57443;SDS011;43289;52.962;6.196;2022-10-26T09:54:16;8.52;;;4.00;;
57443;SDS011;43289;52.962;6.196;2022-10-26T09:56:43;7.72;;;3.85;;
57443;SDS011;43289;52.962;6.196;2022-10-26T09:59:09;7.07;;;3.53;;
57443;SDS011;43289;52.962;6.196;2022-10-26T10:01:35;8.07;;;4.13;;
57443;SDS011;43289;52.962;6.196;2022-10-26T10:04:09;7.60;;;3.75;;
57443;SDS011;43289;52.962;6.196;2022-10-26T10:07:10;9.77;;;3.40;;
57443;SDS011;43289;52.962;6.196;2022-10-26T10:09:37;7.33;;;4.30;;
57443;SDS011;43289;52.962;6.196;2022-10-26T10:12:03;7.18;;;3.72;;
57443;SDS011;43289;52.962;6.196;2022-10-26T10:14:33;7.20;;;3.75;;
57443;SDS011;43289;52.962;6.196;2022-10-26T10:17:03;7.45;;;3.78;;
57443;SDS011;43289;52.962;6.196;2022-10-26T10:19:33;6.00;;;2.83;;
57443;SDS011;43289;52.962;6.196;2022-10-26T10:22:00;11.85;;;3.13;;
57443;SDS011;43289;52.962;6.196;2022-10-26T10:29:40;6.35;;;3.28;;
57443;SDS011;43289;52.962;6.196;2022-10-26T10:32:12;6.57;;;3.30;;
57443;SDS011;43289;52.962;6.196;2022-10-26T10:34:39;9.05;;;2.95;;
57443;SDS011;43289;52.962;6.196;2022-10-26T10:40:28;4.60;;;2.50;;
57443;SDS011;43289;52.962;6.196;2022-10-26T10:43:11;7.78;;;3.05;;
57443;SDS011;43289;52.962;6.196;2022-10-26T10:45:41;5.78;;;2.78;;
57443;SDS011;43289;52.962;6.196;2022-10-26T10:50:50;7.43;;;3.03;;
57443;SDS011;43289;52.962;6.196;2022-10-26T11:07:25;7.10;;;2.85;;
57443;SDS011;43289;52.962;6.196;2022-10-26T11:09:53;10.63;;;3.13;;
57443;SDS011;43289;52.962;6.196;2022-10-26T11:12:28;4.93;;;3.03;;
57443;SDS011;43289;52.962;6.196;2022-10-26T11:14:58;7.18;;;3.05;;
57443;SDS011;43289;52.962;6.196;2022-10-26T11:17:28;6.07;;;3.10;;
57443;SDS011;43289;52.962;6.196;2022-10-26T11:25:16;5.70;;;2.88;;
57443;SDS011;43289;52.962;6.196;2022-10-26T11:27:46;8.98;;;3.25;;
57443;SDS011;43289;52.962;6.196;2022-10-26T11:30:14;5.25;;;2.72;;
57443;SDS011;43289;52.962;6.196;2022-10-26T11:32:43;8.13;;;3.60;;
57443;SDS011;43289;52.962;6.196;2022-10-26T11:40:24;6.38;;;3.13;;
57443;SDS011;43289;52.962;6.196;2022-10-26T11:50:33;4.88;;;2.80;;
57443;SDS011;43289;52.962;6.196;2022-10-26T11:53:23;12.48;;;3.00;;
57443;SDS011;43289;52.962;6.196;2022-10-26T11:55:50;5.32;;;2.50;;
57443;SDS011;43289;52.962;6.196;2022-10-26T12:01:45;6.80;;;3.40;;
57443;SDS011;43289;52.962;6.196;2022-10-26T12:04:12;11.73;;;3.13;;
57443;SDS011;43289;52.962;6.196;2022-10-26T12:06:39;6.43;;;2.75;;
57443;SDS011;43289;52.962;6.196;2022-10-26T12:09:06;9.30;;;3.55;;
57443;SDS011;43289;52.962;6.196;2022-10-26T12:11:57;5.57;;;2.75;;
57443;SDS011;43289;52.962;6.196;2022-10-26T12:17:03;7.68;;;4.18;;
57443;SDS011;43289;52.962;6.196;2022-10-26T12:19:44;9.93;;;4.07;;
57443;SDS011;43289;52.962;6.196;2022-10-26T12:22:14;8.50;;;3.90;;
57443;SDS011;43289;52.962;6.196;2022-10-26T12:24:42;7.03;;;3.53;;
57443;SDS011;43289;52.962;6.196;2022-10-26T12:27:31;6.78;;;3.78;;
57443;SDS011;43289;52.962;6.196;2022-10-26T12:35:28;8.02;;;4.65;;
57443;SDS011;43289;52.962;6.196;2022-10-26T12:37:56;9.00;;;4.38;;
57443;SDS011;43289;52.962;6.196;2022-10-26T12:45:24;11.13;;;4.78;;
57443;SDS011;43289;52.962;6.196;2022-10-26T12:50:22;11.45;;;5.50;;
57443;SDS011;43289;52.962;6.196;2022-10-26T12:52:52;10.38;;;5.60;;
57443;SDS011;43289;52.962;6.196;2022-10-26T12:55:23;8.30;;;4.75;;
57443;SDS011;43289;52.962;6.196;2022-10-26T13:00:38;9.52;;;4.78;;
57443;SDS011;43289;52.962;6.196;2022-10-26T13:03:10;15.38;;;5.72;;
57443;SDS011;43289;52.962;6.196;2022-10-26T13:08:17;8.77;;;5.10;;
57443;SDS011;43289;52.962;6.196;2022-10-26T13:13:32;8.82;;;4.68;;
57443;SDS011;43289;52.962;6.196;2022-10-26T13:16:00;8.60;;;4.72;;
57443;SDS011;43289;52.962;6.196;2022-10-26T13:18:26;9.57;;;5.60;;
57443;SDS011;43289;52.962;6.196;2022-10-26T13:23:28;10.10;;;4.80;;
57443;SDS011;43289;52.962;6.196;2022-10-26T13:26:02;12.27;;;5.40;;
57443;SDS011;43289;52.962;6.196;2022-10-26T13:30:55;12.30;;;5.50;;
57443;SDS011;43289;52.962;6.196;2022-10-26T13:33:22;6.53;;;4.50;;
57443;SDS011;43289;52.962;6.196;2022-10-26T13:35:53;8.18;;;4.15;;
57443;SDS011;43289;52.962;6.196;2022-10-26T13:38:28;9.70;;;4.97;;
57443;SDS011;43289;52.962;6.196;2022-10-26T13:41:01;11.27;;;5.13;;
57443;SDS011;43289;52.962;6.196;2022-10-26T13:43:30;10.05;;;4.90;;
57443;SDS011;43289;52.962;6.196;2022-10-26T13:45:58;7.25;;;4.50;;
57443;SDS011;43289;52.962;6.196;2022-10-26T13:51:02;8.82;;;5.40;;
57443;SDS011;43289;52.962;6.196;2022-10-26T14:25:29;10.40;;;8.15;;
57443;SDS011;43289;52.962;6.196;2022-10-26T14:31:11;14.45;;;9.95;;
57443;SDS011;43289;52.962;6.196;2022-10-26T14:33:38;12.55;;;8.73;;
57443;SDS011;43289;52.962;6.196;2022-10-26T14:36:04;12.35;;;9.32;;
57443;SDS011;43289;52.962;6.196;2022-10-26T14:38:31;11.43;;;9.55;;
57443;SDS011;43289;52.962;6.196;2022-10-26T14:40:59;12.18;;;9.40;;
57443;SDS011;43289;52.962;6.196;2022-10-26T14:43:26;12.05;;;8.13;;
57443;SDS011;43289;52.962;6.196;2022-10-26T14:45:52;10.98;;;8.50;;
57443;SDS011;43289;52.962;6.196;2022-10-26T14:53:33;13.32;;;8.15;;
57443;SDS011;43289;52.962;6.196;2022-10-26T14:58:55;10.73;;;8.32;;
57443;SDS011;43289;52.962;6.196;2022-10-26T15:01:26;11.13;;;9.18;;
57443;SDS011;43289;52.962;6.196;2022-10-26T15:03:56;10.85;;;7.78;;
57443;SDS011;43289;52.962;6.196;2022-10-26T15:09:47;9.43;;;7.55;;
57443;SDS011;43289;52.962;6.196;2022-10-26T15:12:32;8.80;;;6.30;;
57443;SDS011;43289;52.962;6.196;2022-10-26T15:14:59;8.40;;;6.40;;
57443;SDS011;43289;52.962;6.196;2022-10-26T15:17:35;7.95;;;5.97;;
57443;SDS011;43289;52.962;6.196;2022-10-26T15:20:03;9.02;;;6.72;;
57443;SDS011;43289;52.962;6.196;2022-10-26T15:22:30;11.18;;;5.80;;
57443;SDS011;43289;52.962;6.196;2022-10-26T15:24:56;7.30;;;5.15;;
57443;SDS011;43289;52.962;6.196;2022-10-26T15:27:23;9.00;;;5.15;;
57443;SDS011;43289;52.962;6.196;2022-10-26T15:30:07;8.63;;;4.93;;
57443;SDS011;43289;52.962;6.196;2022-10-26T15:32:34;8.32;;;5.00;;
57443;SDS011;43289;52.962;6.196;2022-10-26T15:37:45;8.00;;;4.80;;
57443;SDS011;43289;52.962;6.196;2022-10-26T15:40:12;12.43;;;5.18;;
57443;SDS011;43289;52.962;6.196;2022-10-26T15:42:39;8.05;;;4.97;;
57443;SDS011;43289;52.962;6.196;2022-10-26T15:45:47;7.88;;;4.85;;
57443;SDS011;43289;52.962;6.196;2022-10-26T15:47:56;11.32;;;5.47;;
57443;SDS011;43289;52.962;6.196;2022-10-26T15:50:23;10.43;;;5.65;;
57443;SDS011;43289;52.962;6.196;2022-10-26T15:52:51;9.60;;;5.70;;
57443;SDS011;43289;52.962;6.196;2022-10-26T15:55:19;9.02;;;5.80;;
57443;SDS011;43289;52.962;6.196;2022-10-26T15:57:45;8.32;;;5.18;;
57443;SDS011;43289;52.962;6.196;2022-10-26T16:00:15;7.80;;;6.25;;
57443;SDS011;43289;52.962;6.196;2022-10-26T16:02:42;9.70;;;4.80;;
57443;SDS011;43289;52.962;6.196;2022-10-26T16:05:10;8.38;;;4.82;;
57443;SDS011;43289;52.962;6.196;2022-10-26T16:07:36;6.93;;;5.22;;
57443;SDS011;43289;52.962;6.196;2022-10-26T16:10:03;7.55;;;5.05;;
57443;SDS011;43289;52.962;6.196;2022-10-26T16:12:29;7.07;;;4.72;;
57443;SDS011;43289;52.962;6.196;2022-10-26T16:14:55;7.50;;;4.80;;
57443;SDS011;43289;52.962;6.196;2022-10-26T16:20:18;5.93;;;4.60;;
57443;SDS011;43289;52.962;6.196;2022-10-26T16:22:47;9.43;;;4.75;;
57443;SDS011;43289;52.962;6.196;2022-10-26T16:25:14;6.22;;;4.35;;
57443;SDS011;43289;52.962;6.196;2022-10-26T16:27:41;6.43;;;5.00;;
57443;SDS011;43289;52.962;6.196;2022-10-26T16:30:07;9.55;;;4.85;;
57443;SDS011;43289;52.962;6.196;2022-10-26T16:32:34;9.10;;;4.93;;
57443;SDS011;43289;52.962;6.196;2022-10-26T16:35:00;7.65;;;4.40;;
57443;SDS011;43289;52.962;6.196;2022-10-26T16:37:29;7.43;;;5.00;;
57443;SDS011;43289;52.962;6.196;2022-10-26T16:39:56;5.55;;;4.05;;
57443;SDS011;43289;52.962;6.196;2022-10-26T16:42:22;8.25;;;5.15;;
57443;SDS011;43289;52.962;6.196;2022-10-26T16:44:48;9.38;;;5.20;;
57443;SDS011;43289;52.962;6.196;2022-10-26T16:47:14;6.88;;;4.63;;
57443;SDS011;43289;52.962;6.196;2022-10-26T16:49:40;9.00;;;4.90;;
57443;SDS011;43289;52.962;6.196;2022-10-26T16:52:11;9.02;;;5.45;;
57443;SDS011;43289;52.962;6.196;2022-10-26T16:54:37;9.82;;;4.88;;
57443;SDS011;43289;52.962;6.196;2022-10-26T16:57:03;8.93;;;5.15;;
57443;SDS011;43289;52.962;6.196;2022-10-26T16:59:29;8.18;;;4.90;;
57443;SDS011;43289;52.962;6.196;2022-10-26T17:01:56;9.55;;;4.82;;
57443;SDS011;43289;52.962;6.196;2022-10-26T17:04:22;8.07;;;4.50;;
57443;SDS011;43289;52.962;6.196;2022-10-26T17:06:48;7.38;;;4.13;;
57443;SDS011;43289;52.962;6.196;2022-10-26T17:09:16;7.20;;;4.28;;
57443;SDS011;43289;52.962;6.196;2022-10-26T17:11:42;7.78;;;4.20;;
57443;SDS011;43289;52.962;6.196;2022-10-26T17:14:08;8.13;;;4.75;;
57443;SDS011;43289;52.962;6.196;2022-10-26T17:16:38;7.07;;;5.07;;
57443;SDS011;43289;52.962;6.196;2022-10-26T17:19:04;7.03;;;5.43;;
57443;SDS011;43289;52.962;6.196;2022-10-26T17:21:32;9.77;;;4.95;;
57443;SDS011;43289;52.962;6.196;2022-10-26T17:23:59;6.13;;;4.15;;
57443;SDS011;43289;52.962;6.196;2022-10-26T17:26:25;6.95;;;4.80;;
57443;SDS011;43289;52.962;6.196;2022-10-26T17:28:56;9.60;;;4.53;;
57443;SDS011;43289;52.962;6.196;2022-10-26T17:31:23;10.45;;;5.22;;
57443;SDS011;43289;52.962;6.196;2022-10-26T17:33:53;8.27;;;5.25;;
57443;SDS011;43289;52.962;6.196;2022-10-26T17:36:21;9.82;;;4.80;;
57443;SDS011;43289;52.962;6.196;2022-10-26T17:38:48;6.88;;;5.30;;
57443;SDS011;43289;52.962;6.196;2022-10-26T17:41:15;8.73;;;5.68;;
57443;SDS011;43289;52.962;6.196;2022-10-26T17:46:15;7.93;;;5.47;;
57443;SDS011;43289;52.962;6.196;2022-10-26T17:48:41;11.48;;;6.47;;
57443;SDS011;43289;52.962;6.196;2022-10-26T17:51:11;10.30;;;5.72;;
57443;SDS011;43289;52.962;6.196;2022-10-26T17:53:38;10.00;;;6.00;;
57443;SDS011;43289;52.962;6.196;2022-10-26T17:56:12;8.05;;;5.65;;
57443;SDS011;43289;52.962;6.196;2022-10-26T17:58:39;10.57;;;6.07;;
57443;SDS011;43289;52.962;6.196;2022-10-26T18:01:07;7.65;;;5.68;;
57443;SDS011;43289;52.962;6.196;2022-10-26T18:03:37;11.93;;;6.47;;
57443;SDS011;43289;52.962;6.196;2022-10-26T18:06:03;10.20;;;6.60;;
57443;SDS011;43289;52.962;6.196;2022-10-26T18:08:34;9.40;;;5.97;;
57443;SDS011;43289;52.962;6.196;2022-10-26T18:11:00;8.02;;;6.07;;
57443;SDS011;43289;52.962;6.196;2022-10-26T18:13:29;8.50;;;6.53;;
57443;SDS011;43289;52.962;6.196;2022-10-26T18:16:16;9.90;;;6.93;;
57443;SDS011;43289;52.962;6.196;2022-10-26T18:18:43;8.90;;;6.30;;
57443;SDS011;43289;52.962;6.196;2022-10-26T18:21:17;8.30;;;6.88;;
57443;SDS011;43289;52.962;6.196;2022-10-26T18:23:43;10.77;;;7.25;;
57443;SDS011;43289;52.962;6.196;2022-10-26T18:26:13;8.38;;;6.97;;
57443;SDS011;43289;52.962;6.196;2022-10-26T18:28:40;10.55;;;8.15;;